Patcona II — WDC2170 — position and weather

sailwx.info

Track history (hours):
 
Tides and Currents Weather Stations Pressure Air Temp Water Temp Dewpoint Dewpoint Depression Visibility Wind Speed Wind Dir Waves Ship Positions

Patcona II

Owner: Connolly-Pacific Co, long beach, CA. More information available from US FCC via Universal Licensing System and Coast Guard Vessel Documentation Center.

Last reported at 2018-Aug-15 21:52 UTC. Time now 2018-Aug-16 08:45 UTC.
Position N 33°46' W 118°13'.

Length 25 m; draft 3.5 m.

Type: Towing. MMSI: 366988960.

Date/timePositionNaut miles runAvg speedWind from/ knotsBaromVisibWave heightAir tempDewpointWater temp
2018-Aug-15 21:52N 33°46' W 118°13'1 2.2
2018-Aug-15 21:30N 33°45' W 118°13'1 1.5
2018-Aug-15 21:00N 33°46' W 118°13'0 0.0
2018-Aug-15 20:30N 33°46' W 118°13'1 1.8
2018-Aug-15 20:00N 33°45' W 118°13'1 1.2
2018-Aug-15 19:30N 33°45' W 118°13'1 2.1
2018-Aug-15 19:00N 33°44' W 118°14'1 1.2
2018-Aug-15 18:30N 33°44' W 118°14'1 1.3
2018-Aug-15 18:00N 33°45' W 118°13'1 1.2
2018-Aug-15 17:30N 33°45' W 118°13'1 0.0
2018-Aug-14 17:59N 33°46' W 118°13'0 0.1
2018-Aug-14 17:30N 33°46' W 118°13'0 0.0
2018-Aug-14 17:00N 33°46' W 118°13'0 0.0
2018-Aug-14 16:30N 33°46' W 118°13'0 0.0
2018-Aug-14 16:00N 33°46' W 118°13'0 0.0
2018-Aug-14 06:27N 33°46' W 118°13'1 2.0
2018-Aug-14 06:01N 33°45' W 118°13'1 2.4
2018-Aug-14 05:30N 33°44' W 118°14'2 3.4
2018-Aug-14 05:00N 33°43' W 118°15'2 3.1
2018-Aug-14 04:31N 33°41' W 118°14'2 3.7
2018-Aug-14 04:00N 33°40' W 118°14'2 3.5
2018-Aug-14 03:30N 33°38' W 118°14'2 3.4
2018-Aug-14 03:00N 33°36' W 118°14'2 3.4
2018-Aug-14 02:30N 33°34' W 118°14'2 3.3
2018-Aug-14 02:01N 33°33' W 118°14'2 3.2
2018-Aug-14 01:31N 33°31' W 118°14'2 3.5
2018-Aug-14 01:00N 33°30' W 118°15'1 2.4
2018-Aug-14 00:30N 33°28' W 118°15'1 2.1
2018-Aug-14 00:00N 33°27' W 118°16'1 1.0
2018-Aug-13 23:30N 33°27' W 118°16'0 0.8
2018-Aug-13 23:00N 33°27' W 118°17'0 0.6
2018-Aug-13 22:31N 33°27' W 118°16'0 0.5
2018-Aug-13 22:00N 33°27' W 118°17'0 0.1
2018-Aug-13 21:30N 33°27' W 118°17'0 0.2
2018-Aug-13 21:00N 33°27' W 118°17'1 1.7
2018-Aug-13 20:30N 33°26' W 118°17'2 4.5
2018-Aug-13 19:59N 33°24' W 118°17'2 4.2
2018-Aug-13 19:30N 33°22' W 118°17'2 4.2
2018-Aug-13 19:00N 33°20' W 118°17'1 1.9
2018-Aug-13 18:30N 33°19' W 118°18'0 0.1
2018-Aug-13 15:18N 33°19' W 118°18'0 0.7
2018-Aug-13 15:00N 33°19' W 118°18'0 0.1
2018-Aug-13 14:30N 33°19' W 118°18'1 1.7
2018-Aug-13 14:00N 33°19' W 118°17'2 4.3
2018-Aug-13 13:29N 33°21' W 118°18'3 6.8
2018-Aug-13 13:00N 33°24' W 118°18'3 6.6
2018-Aug-13 12:30N 33°27' W 118°18'3 6.7
2018-Aug-13 12:00N 33°31' W 118°17'3 6.9
2018-Aug-13 11:30N 33°34' W 118°17'3 6.9
2018-Aug-13 11:00N 33°38' W 118°16'4 7.3
2018-Aug-13 10:30N 33°41' W 118°15'2 5.0
2018-Aug-13 10:00N 33°43' W 118°14'1 2.4
2018-Aug-13 09:30N 33°44' W 118°13'1 2.5
2018-Aug-13 09:00N 33°46' W 118°13'  
2018-Aug-09 20:13N 33°46' W 118°13'1 3.7
2018-Aug-09 20:00N 33°45' W 118°13'3 6.3
2018-Aug-09 19:30N 33°43' W 118°16'1 2.1
2018-Aug-09 19:00N 33°44' W 118°16'0 0.0
2018-Aug-09 18:30N 33°44' W 118°16'0 0.0
2018-Aug-09 17:59N 33°44' W 118°16'2 3.4
2018-Aug-09 17:30N 33°43' W 118°15'3 5.1
2018-Aug-09 17:00N 33°45' W 118°13'1 1.6
2018-Aug-09 16:30N 33°44' W 118°13'1 1.1
2018-Aug-09 16:00N 33°45' W 118°13'1 2.3
2018-Aug-09 15:30N 33°46' W 118°13'0 0.0
2018-Aug-08 06:45N 33°46' W 118°13'0 0.8
2018-Aug-08 06:30N 33°46' W 118°13'1 1.2
2018-Aug-08 06:01N 33°45' W 118°13'0 0.5
2018-Aug-08 05:31N 33°45' W 118°13'1 1.1
2018-Aug-08 05:01N 33°44' W 118°13'1 1.0
2018-Aug-08 04:30N 33°45' W 118°13'0 0.0
2018-Aug-08 04:00N 33°45' W 118°13'1 2.4
2018-Aug-08 03:30N 33°44' W 118°14'1 1.8
2018-Aug-08 03:00N 33°43' W 118°14'1 1.7
2018-Aug-08 02:30N 33°42' W 118°14'2 4.3
2018-Aug-08 02:00N 33°40' W 118°14'2 4.8
2018-Aug-08 01:30N 33°38' W 118°15'2 4.7
2018-Aug-08 01:01N 33°35' W 118°15'2 4.5
2018-Aug-08 00:30N 33°33' W 118°16'2 4.9
2018-Aug-08 00:01N 33°31' W 118°16'3 5.1
2018-Aug-07 23:30N 33°28' W 118°16'2 4.9
2018-Aug-07 23:01N 33°26' W 118°17'2 4.6
2018-Aug-07 22:30N 33°23' W 118°17'2 4.9
2018-Aug-07 22:00N 33°21' W 118°17'2 3.5
2018-Aug-07 21:30N 33°19' W 118°18'1 1.0
2018-Aug-07 21:00N 33°19' W 118°18'0 0.1
2018-Aug-07 16:34N 33°19' W 118°18'0 3.6
2018-Aug-07 16:30N 33°19' W 118°18'0 0.1
2018-Aug-07 16:01N 33°19' W 118°18'0 0.1
2018-Aug-07 15:30N 33°19' W 118°18'1 1.1
2018-Aug-07 15:00N 33°19' W 118°18'2 4.7
2018-Aug-07 14:30N 33°21' W 118°18'4 6.7
2018-Aug-07 13:58N 33°25' W 118°17'3 6.8
2018-Aug-07 13:30N 33°28' W 118°17'4 6.9
2018-Aug-07 12:59N 33°31' W 118°17'3 6.7
2018-Aug-07 12:30N 33°35' W 118°16'3 6.6
2018-Aug-07 12:00N 33°38' W 118°16'3 6.5
2018-Aug-07 11:30N 33°41' W 118°16'2 4.2
2018-Aug-07 11:00N 33°43' W 118°14'1 1.9
2018-Aug-07 10:31N 33°44' W 118°14'1 1.0
2018-Aug-07 10:01N 33°44' W 118°14'1 1.5
2018-Aug-07 09:31N 33°45' W 118°13'0 0.7
2018-Aug-07 09:00N 33°45' W 118°13'1 1.7
2018-Aug-07 08:30N 33°46' W 118°13'  
Track history (hours):
 
Tides and Currents Weather Stations Pressure Air Temp Water Temp Dewpoint Dewpoint Depression Visibility Wind Speed Wind Dir Waves Ship Positions

Patcona II

Owner: Connolly-Pacific Co, long beach, CA. More information available from US FCC via Universal Licensing System and Coast Guard Vessel Documentation Center.

Last reported at 2018-Aug-15 21:52 UTC. Time now 2018-Aug-16 08:45 UTC.
Position N 33°46' W 118°13'.

Length 25 m; draft 3.5 m.

Type: Towing. MMSI: 366988960.

Date/timePositionNaut miles runAvg speedWind from/ knotsBaromVisibWave heightAir tempDewpointWater temp
2018-Aug-15 21:52N 33°46' W 118°13'1 2.2
2018-Aug-15 21:30N 33°45' W 118°13'1 1.5
2018-Aug-15 21:00N 33°46' W 118°13'0 0.0
2018-Aug-15 20:30N 33°46' W 118°13'1 1.8
2018-Aug-15 20:00N 33°45' W 118°13'1 1.2
2018-Aug-15 19:30N 33°45' W 118°13'1 2.1
2018-Aug-15 19:00N 33°44' W 118°14'1 1.2
2018-Aug-15 18:30N 33°44' W 118°14'1 1.3
2018-Aug-15 18:00N 33°45' W 118°13'1 1.2
2018-Aug-15 17:30N 33°45' W 118°13'1 0.0
2018-Aug-14 17:59N 33°46' W 118°13'0 0.1
2018-Aug-14 17:30N 33°46' W 118°13'0 0.0
2018-Aug-14 17:00N 33°46' W 118°13'0 0.0
2018-Aug-14 16:30N 33°46' W 118°13'0 0.0
2018-Aug-14 16:00N 33°46' W 118°13'0 0.0
2018-Aug-14 06:27N 33°46' W 118°13'1 2.0
2018-Aug-14 06:01N 33°45' W 118°13'1 2.4
2018-Aug-14 05:30N 33°44' W 118°14'2 3.4
2018-Aug-14 05:00N 33°43' W 118°15'2 3.1
2018-Aug-14 04:31N 33°41' W 118°14'2 3.7
2018-Aug-14 04:00N 33°40' W 118°14'2 3.5
2018-Aug-14 03:30N 33°38' W 118°14'2 3.4
2018-Aug-14 03:00N 33°36' W 118°14'2 3.4
2018-Aug-14 02:30N 33°34' W 118°14'2 3.3
2018-Aug-14 02:01N 33°33' W 118°14'2 3.2
2018-Aug-14 01:31N 33°31' W 118°14'2 3.5
2018-Aug-14 01:00N 33°30' W 118°15'1 2.4
2018-Aug-14 00:30N 33°28' W 118°15'1 2.1
2018-Aug-14 00:00N 33°27' W 118°16'1 1.0
2018-Aug-13 23:30N 33°27' W 118°16'0 0.8
2018-Aug-13 23:00N 33°27' W 118°17'0 0.6
2018-Aug-13 22:31N 33°27' W 118°16'0 0.5
2018-Aug-13 22:00N 33°27' W 118°17'0 0.1
2018-Aug-13 21:30N 33°27' W 118°17'0 0.2
2018-Aug-13 21:00N 33°27' W 118°17'1 1.7
2018-Aug-13 20:30N 33°26' W 118°17'2 4.5
2018-Aug-13 19:59N 33°24' W 118°17'2 4.2
2018-Aug-13 19:30N 33°22' W 118°17'2 4.2
2018-Aug-13 19:00N 33°20' W 118°17'1 1.9
2018-Aug-13 18:30N 33°19' W 118°18'0 0.1
2018-Aug-13 15:18N 33°19' W 118°18'0 0.7
2018-Aug-13 15:00N 33°19' W 118°18'0 0.1
2018-Aug-13 14:30N 33°19' W 118°18'1 1.7
2018-Aug-13 14:00N 33°19' W 118°17'2 4.3
2018-Aug-13 13:29N 33°21' W 118°18'3 6.8
2018-Aug-13 13:00N 33°24' W 118°18'3 6.6
2018-Aug-13 12:30N 33°27' W 118°18'3 6.7
2018-Aug-13 12:00N 33°31' W 118°17'3 6.9
2018-Aug-13 11:30N 33°34' W 118°17'3 6.9
2018-Aug-13 11:00N 33°38' W 118°16'4 7.3
2018-Aug-13 10:30N 33°41' W 118°15'2 5.0
2018-Aug-13 10:00N 33°43' W 118°14'1 2.4
2018-Aug-13 09:30N 33°44' W 118°13'1 2.5
2018-Aug-13 09:00N 33°46' W 118°13'  
2018-Aug-09 20:13N 33°46' W 118°13'1 3.7
2018-Aug-09 20:00N 33°45' W 118°13'3 6.3
2018-Aug-09 19:30N 33°43' W 118°16'1 2.1
2018-Aug-09 19:00N 33°44' W 118°16'0 0.0
2018-Aug-09 18:30N 33°44' W 118°16'0 0.0
2018-Aug-09 17:59N 33°44' W 118°16'2 3.4
2018-Aug-09 17:30N 33°43' W 118°15'3 5.1
2018-Aug-09 17:00N 33°45' W 118°13'1 1.6
2018-Aug-09 16:30N 33°44' W 118°13'1 1.1
2018-Aug-09 16:00N 33°45' W 118°13'1 2.3
2018-Aug-09 15:30N 33°46' W 118°13'0 0.0
2018-Aug-08 06:45N 33°46' W 118°13'0 0.8
2018-Aug-08 06:30N 33°46' W 118°13'1 1.2
2018-Aug-08 06:01N 33°45' W 118°13'0 0.5
2018-Aug-08 05:31N 33°45' W 118°13'1 1.1
2018-Aug-08 05:01N 33°44' W 118°13'1 1.0
2018-Aug-08 04:30N 33°45' W 118°13'0 0.0
2018-Aug-08 04:00N 33°45' W 118°13'1 2.4
2018-Aug-08 03:30N 33°44' W 118°14'1 1.8
2018-Aug-08 03:00N 33°43' W 118°14'1 1.7
2018-Aug-08 02:30N 33°42' W 118°14'2 4.3
2018-Aug-08 02:00N 33°40' W 118°14'2 4.8
2018-Aug-08 01:30N 33°38' W 118°15'2 4.7
2018-Aug-08 01:01N 33°35' W 118°15'2 4.5
2018-Aug-08 00:30N 33°33' W 118°16'2 4.9
2018-Aug-08 00:01N 33°31' W 118°16'3 5.1
2018-Aug-07 23:30N 33°28' W 118°16'2 4.9
2018-Aug-07 23:01N 33°26' W 118°17'2 4.6
2018-Aug-07 22:30N 33°23' W 118°17'2 4.9
2018-Aug-07 22:00N 33°21' W 118°17'2 3.5
2018-Aug-07 21:30N 33°19' W 118°18'1 1.0
2018-Aug-07 21:00N 33°19' W 118°18'0 0.1
2018-Aug-07 16:34N 33°19' W 118°18'0 3.6
2018-Aug-07 16:30N 33°19' W 118°18'0 0.1
2018-Aug-07 16:01N 33°19' W 118°18'0 0.1
2018-Aug-07 15:30N 33°19' W 118°18'1 1.1
2018-Aug-07 15:00N 33°19' W 118°18'2 4.7
2018-Aug-07 14:30N 33°21' W 118°18'4 6.7
2018-Aug-07 13:58N 33°25' W 118°17'3 6.8
2018-Aug-07 13:30N 33°28' W 118°17'4 6.9
2018-Aug-07 12:59N 33°31' W 118°17'3 6.7
2018-Aug-07 12:30N 33°35' W 118°16'3 6.6
2018-Aug-07 12:00N 33°38' W 118°16'3 6.5
2018-Aug-07 11:30N 33°41' W 118°16'2 4.2
2018-Aug-07 11:00N 33°43' W 118°14'1 1.9
2018-Aug-07 10:31N 33°44' W 118°14'1 1.0
2018-Aug-07 10:01N 33°44' W 118°14'1 1.5
2018-Aug-07 09:31N 33°45' W 118°13'0 0.7
2018-Aug-07 09:00N 33°45' W 118°13'1 1.7
2018-Aug-07 08:30N 33°46' W 118°13'  

Dump ship's entire track history